createdAt,value
2017-06-20T00:01:23.545Z,9.80
2017-06-20T00:03:51.089Z,10.23
2017-06-20T00:06:19.300Z,9.80
2017-06-20T00:08:46.732Z,10.27
2017-06-20T00:11:14.233Z,10.93
2017-06-20T00:13:41.669Z,11.00
2017-06-20T00:16:09.101Z,10.50
2017-06-20T00:18:36.545Z,11.20
2017-06-20T00:21:04.749Z,11.53
2017-06-20T00:23:32.188Z,11.33
2017-06-20T00:26:07.944Z,10.40
2017-06-20T00:28:35.413Z,11.20
2017-06-20T00:31:02.846Z,10.43
2017-06-20T00:33:31.045Z,10.87
2017-06-20T00:35:58.488Z,11.07
2017-06-20T00:38:25.925Z,11.80
2017-06-20T00:40:54.148Z,11.30
2017-06-20T00:43:21.589Z,12.10
2017-06-20T00:45:49.014Z,11.57
2017-06-20T00:48:17.222Z,12.13
2017-06-20T00:50:44.656Z,11.83
2017-06-20T00:53:12.865Z,11.40
2017-06-20T00:55:40.305Z,12.10
2017-06-20T00:58:07.745Z,12.97
2017-06-20T01:00:35.957Z,12.33
2017-06-20T01:03:03.406Z,11.57
2017-06-20T01:05:30.839Z,12.17
2017-06-20T01:07:58.273Z,12.10
2017-06-20T01:10:26.473Z,11.93
2017-06-20T01:12:53.931Z,11.97
2017-06-20T01:15:21.360Z,11.60
2017-06-20T01:17:49.597Z,12.70
2017-06-20T01:20:17.300Z,12.90
2017-06-20T01:22:45.496Z,13.10
2017-06-20T01:25:12.953Z,12.40
2017-06-20T01:27:40.382Z,12.40
2017-06-20T01:30:07.836Z,12.43
2017-06-20T01:32:35.264Z,9.17
2017-06-20T01:35:02.701Z,10.73
2017-06-20T01:37:30.146Z,12.63
2017-06-20T01:39:57.577Z,10.07
2017-06-20T01:42:25.794Z,11.93
2017-06-20T01:44:53.229Z,12.30
2017-06-20T01:47:20.659Z,12.37
2017-06-20T01:49:48.865Z,13.80
2017-06-20T01:52:16.301Z,11.20
2017-06-20T01:54:44.512Z,11.50
2017-06-20T01:57:11.940Z,10.63
2017-06-20T01:59:39.371Z,11.13
2017-06-20T02:02:06.849Z,11.00
2017-06-20T02:04:35.047Z,10.77
2017-06-20T02:07:02.489Z,12.33
2017-06-20T02:09:29.944Z,10.83
2017-06-20T02:11:57.373Z,12.10
2017-06-20T02:14:24.799Z,10.40
2017-06-20T02:16:52.235Z,11.70
2017-06-20T02:19:19.693Z,11.47
2017-06-20T02:21:47.128Z,11.10
2017-06-20T02:24:14.563Z,11.40
2017-06-20T02:26:42.767Z,13.17
2017-06-20T02:29:11.216Z,11.90
2017-06-20T02:31:39.424Z,12.67
2017-06-20T02:34:06.860Z,12.53
2017-06-20T02:36:35.073Z,12.90
2017-06-20T02:39:02.580Z,12.53
2017-06-20T02:41:30.777Z,12.50
2017-06-20T02:43:58.223Z,12.73
2017-06-20T02:46:26.489Z,12.90
2017-06-20T02:48:54.692Z,13.27
2017-06-20T02:51:22.121Z,12.87
2017-06-20T02:53:50.424Z,11.70
2017-06-20T02:56:17.869Z,11.70
2017-06-20T02:58:46.060Z,12.47
2017-06-20T03:01:13.500Z,13.20
2017-06-20T03:03:41.691Z,12.70
2017-06-20T03:06:09.129Z,11.57
2017-06-20T03:08:36.564Z,12.60
2017-06-20T03:11:13.875Z,10.67
2017-06-20T03:13:41.313Z,11.67
2017-06-20T03:16:08.744Z,12.87
2017-06-20T03:18:36.212Z,12.50
2017-06-20T03:21:03.640Z,11.63
2017-06-20T03:23:31.080Z,12.27
2017-06-20T03:25:58.584Z,11.63
2017-06-20T03:28:26.004Z,12.83
2017-06-20T03:30:53.440Z,11.70
2017-06-20T03:33:20.869Z,13.30
2017-06-20T03:35:49.079Z,11.80
2017-06-20T03:38:16.508Z,12.00
2017-06-20T03:40:44.723Z,12.77
2017-06-20T03:43:12.175Z,12.20
2017-06-20T03:45:39.620Z,11.80
2017-06-20T03:48:07.050Z,12.37
2017-06-20T03:50:35.251Z,12.00
2017-06-20T03:53:02.684Z,12.23
2017-06-20T03:55:30.952Z,13.37
2017-06-20T03:57:59.151Z,12.10
2017-06-20T04:00:26.584Z,14.00
2017-06-20T04:02:54.816Z,13.17
2017-06-20T04:05:22.243Z,12.80
2017-06-20T04:07:49.680Z,12.57
2017-06-20T04:10:17.888Z,12.27
2017-06-20T04:12:45.325Z,11.17
2017-06-20T04:15:12.763Z,12.93
2017-06-20T04:17:40.959Z,12.10
2017-06-20T04:20:08.411Z,11.20
2017-06-20T04:22:36.600Z,12.20
2017-06-20T04:25:04.031Z,11.57
2017-06-20T04:27:32.243Z,12.37
2017-06-20T04:29:59.677Z,11.83
2017-06-20T04:32:27.112Z,12.07
2017-06-20T04:34:54.543Z,10.80
2017-06-20T04:37:22.000Z,10.57
2017-06-20T04:39:49.437Z,10.73
2017-06-20T04:42:16.864Z,10.13
2017-06-20T04:44:44.305Z,10.73
2017-06-20T04:47:12.501Z,11.00
2017-06-20T04:49:39.939Z,9.90
2017-06-20T04:52:08.129Z,10.30
2017-06-20T04:54:35.568Z,11.33
2017-06-20T04:57:03.760Z,8.40
2017-06-20T04:59:31.196Z,9.33
2017-06-20T05:01:59.407Z,9.57
2017-06-20T05:04:26.832Z,9.70
2017-06-20T05:06:54.280Z,11.50
2017-06-20T05:09:22.476Z,12.87
2017-06-20T05:11:49.924Z,12.47
2017-06-20T05:14:17.356Z,11.30
2017-06-20T05:16:44.788Z,10.57
2017-06-20T05:19:12.240Z,11.63
2017-06-20T05:21:39.665Z,11.27
2017-06-20T05:24:07.105Z,12.00
2017-06-20T05:26:34.541Z,9.70
2017-06-20T05:29:02.755Z,10.50
2017-06-20T05:31:30.181Z,12.63
2017-06-20T05:33:58.381Z,11.53
2017-06-20T05:36:25.823Z,12.10
2017-06-20T05:38:53.259Z,10.63
2017-06-20T05:41:21.474Z,12.07
2017-06-20T05:43:48.916Z,11.87
2017-06-20T05:46:16.364Z,11.33
2017-06-20T05:48:43.803Z,11.03
2017-06-20T05:51:12.004Z,10.40
2017-06-20T05:53:39.439Z,10.20
2017-06-20T05:56:07.645Z,12.20
2017-06-20T05:58:35.117Z,9.87
2017-06-20T06:01:02.552Z,9.63
2017-06-20T06:03:30.248Z,10.50
2017-06-20T06:05:57.682Z,9.73
2017-06-20T06:08:25.117Z,10.03
2017-06-20T06:10:52.556Z,9.37
2017-06-20T06:13:20.752Z,8.73
2017-06-20T06:15:48.192Z,9.20
2017-06-20T06:18:16.380Z,8.77
2017-06-20T06:20:44.080Z,8.70
2017-06-20T06:23:11.516Z,8.40
2017-06-20T06:25:38.946Z,7.60
2017-06-20T06:28:07.163Z,7.33
2017-06-20T06:30:34.592Z,6.73
2017-06-20T06:33:02.029Z,8.03
2017-06-20T06:35:30.232Z,7.73
2017-06-20T06:37:57.688Z,7.80
2017-06-20T06:40:25.111Z,8.50
2017-06-20T06:42:53.312Z,8.70
2017-06-20T06:45:20.752Z,8.40
2017-06-20T06:47:48.177Z,8.30
2017-06-20T06:50:15.612Z,8.40
2017-06-20T06:52:43.046Z,8.33
2017-06-20T06:55:10.480Z,7.90
2017-06-20T06:57:38.844Z,7.80
2017-06-20T07:00:06.273Z,6.47
2017-06-20T07:02:33.713Z,7.50
2017-06-20T07:05:01.146Z,7.73
2017-06-20T07:07:28.615Z,7.07
2017-06-20T07:09:56.118Z,7.23
2017-06-20T07:12:23.533Z,7.60
2017-06-20T07:14:50.965Z,7.17
2017-06-20T07:17:18.389Z,7.77
2017-06-20T07:19:45.841Z,7.00
2017-06-20T07:22:13.272Z,7.00
2017-06-20T07:24:40.704Z,7.47
2017-06-20T07:27:08.139Z,7.27
2017-06-20T07:29:35.565Z,7.03
2017-06-20T07:32:02.997Z,7.40
2017-06-20T07:34:30.427Z,7.10
2017-06-20T07:36:57.877Z,7.83
2017-06-20T07:39:25.309Z,7.30
2017-06-20T07:41:52.734Z,6.30
2017-06-20T07:44:20.173Z,6.63
2017-06-20T07:46:47.600Z,6.40
2017-06-20T07:49:15.036Z,5.97
2017-06-20T07:51:42.460Z,6.30
2017-06-20T07:54:09.910Z,5.90
2017-06-20T07:56:37.340Z,5.70
2017-06-20T07:59:04.861Z,5.80
2017-06-20T08:01:32.301Z,5.10
2017-06-20T08:03:59.776Z,5.70
2017-06-20T08:06:27.215Z,5.40
2017-06-20T08:08:54.644Z,5.73
2017-06-20T08:11:22.073Z,5.93
2017-06-20T08:13:49.492Z,5.47
2017-06-20T08:16:16.928Z,6.97
2017-06-20T08:18:44.367Z,5.57
2017-06-20T08:21:17.404Z,5.27
2017-06-20T08:23:44.831Z,5.80
2017-06-20T08:26:12.268Z,6.13
2017-06-20T08:28:39.699Z,6.50
2017-06-20T08:31:07.128Z,6.03
2017-06-20T08:33:34.585Z,6.70
2017-06-20T08:36:05.811Z,5.97
2017-06-20T08:38:34.931Z,6.83
2017-06-20T08:41:03.124Z,5.90
2017-06-20T08:43:30.549Z,5.70
2017-06-20T08:45:57.989Z,5.87
2017-06-20T08:48:25.442Z,5.20
2017-06-20T08:50:52.882Z,6.33
2017-06-20T08:53:20.308Z,5.90
2017-06-20T08:55:47.761Z,5.83
2017-06-20T08:58:15.954Z,5.93
2017-06-20T09:00:43.489Z,4.80
2017-06-20T09:03:11.683Z,5.63
2017-06-20T09:05:39.115Z,5.40
2017-06-20T09:08:07.319Z,6.10
2017-06-20T09:10:34.912Z,5.17
2017-06-20T09:13:02.345Z,5.50
2017-06-20T09:15:29.846Z,5.53
2017-06-20T09:17:57.478Z,4.70
2017-06-20T09:20:24.896Z,5.30
2017-06-20T09:22:52.334Z,6.23
2017-06-20T09:25:20.528Z,4.93
2017-06-20T09:27:47.993Z,5.70
2017-06-20T09:30:16.216Z,6.27
2017-06-20T09:32:43.643Z,5.40
2017-06-20T09:35:11.073Z,6.37
2017-06-20T09:37:38.507Z,5.40
2017-06-20T09:40:06.741Z,5.17
2017-06-20T09:42:34.226Z,5.00
2017-06-20T09:45:01.775Z,5.27
2017-06-20T09:47:29.569Z,5.07
2017-06-20T09:49:57.769Z,4.70
2017-06-20T09:52:25.198Z,4.80
2017-06-20T09:54:53.408Z,5.40
2017-06-20T09:57:20.827Z,5.10
2017-06-20T09:59:49.050Z,4.50
2017-06-20T10:02:16.477Z,5.37
2017-06-20T10:04:43.896Z,5.17
2017-06-20T10:07:11.336Z,4.83
2017-06-20T10:09:38.777Z,4.70
2017-06-20T10:12:06.227Z,5.17
2017-06-20T10:14:33.653Z,4.27
2017-06-20T10:17:01.086Z,4.80
2017-06-20T10:19:28.569Z,5.00
2017-06-20T10:21:56.762Z,5.10
2017-06-20T10:24:24.213Z,4.50
2017-06-20T10:26:51.661Z,4.67
2017-06-20T10:29:19.083Z,4.10
2017-06-20T10:31:46.562Z,4.30
2017-06-20T10:34:14.761Z,4.50
2017-06-20T10:36:42.249Z,4.10
2017-06-20T10:39:09.678Z,3.10
2017-06-20T10:41:37.146Z,3.40
2017-06-20T10:44:04.573Z,3.80
2017-06-20T10:46:32.001Z,4.17
2017-06-20T10:48:59.449Z,3.47
2017-06-20T10:51:26.876Z,3.33
2017-06-20T10:53:54.440Z,2.60
2017-06-20T10:56:21.875Z,3.07
2017-06-20T10:58:49.309Z,3.00
2017-06-20T11:01:17.509Z,3.30
2017-06-20T11:03:45.001Z,2.60
2017-06-20T11:06:12.432Z,2.90
2017-06-20T11:08:39.864Z,3.13
2017-06-20T11:11:07.296Z,2.97
2017-06-20T11:13:34.711Z,3.50
2017-06-20T11:16:02.202Z,2.77
2017-06-20T11:18:29.635Z,2.47
2017-06-20T11:20:57.064Z,3.00
2017-06-20T11:23:24.500Z,2.00
2017-06-20T11:25:51.976Z,3.00
2017-06-20T11:28:19.413Z,2.87
2017-06-20T11:30:46.843Z,2.40
2017-06-20T11:33:14.280Z,2.20
2017-06-20T11:35:41.717Z,2.30
2017-06-20T11:38:09.145Z,2.20
2017-06-20T11:40:36.576Z,3.10
2017-06-20T11:43:04.773Z,2.90
2017-06-20T11:45:32.206Z,3.03
2017-06-20T11:47:59.633Z,2.40
2017-06-20T11:50:27.081Z,2.60
2017-06-20T11:52:54.517Z,3.13
2017-06-20T11:55:21.941Z,2.70
2017-06-20T11:57:50.141Z,2.50
2017-06-20T12:00:17.565Z,2.37
2017-06-20T12:02:45.035Z,2.67
2017-06-20T12:05:12.464Z,2.70
2017-06-20T12:07:39.913Z,3.10
2017-06-20T12:10:07.329Z,2.50
2017-06-20T12:12:34.759Z,2.30
2017-06-20T12:15:02.952Z,2.27
2017-06-20T12:17:30.387Z,3.30
2017-06-20T12:19:58.609Z,2.63
2017-06-20T12:22:26.032Z,2.50
2017-06-20T12:24:53.469Z,3.47
2017-06-20T12:27:21.678Z,2.80
2017-06-20T12:29:49.105Z,2.90
2017-06-20T12:32:17.313Z,2.57
2017-06-20T12:34:44.744Z,3.10
2017-06-20T12:37:12.957Z,2.70
2017-06-20T12:39:44.840Z,2.80
2017-06-20T12:42:12.252Z,3.37
2017-06-20T12:44:39.689Z,2.80
2017-06-20T12:47:08.723Z,3.57
2017-06-20T12:49:36.161Z,3.30
2017-06-20T12:52:03.663Z,2.63
2017-06-20T12:54:31.094Z,3.10
2017-06-20T12:56:58.525Z,3.20
2017-06-20T12:59:25.954Z,2.93
2017-06-20T13:01:53.381Z,2.90
2017-06-20T13:04:20.868Z,2.97
2017-06-20T13:06:48.282Z,3.00
2017-06-20T13:09:15.713Z,2.93
2017-06-20T13:11:43.257Z,3.40
2017-06-20T13:14:11.453Z,3.23
2017-06-20T13:16:38.877Z,2.80
2017-06-20T13:19:06.309Z,3.40
2017-06-20T13:21:33.797Z,2.60
2017-06-20T13:24:01.993Z,3.27
2017-06-20T13:26:29.421Z,3.23
2017-06-20T13:28:57.648Z,3.20
2017-06-20T13:31:25.068Z,2.43
2017-06-20T13:33:52.492Z,2.73
2017-06-20T13:36:19.939Z,3.00
2017-06-20T13:38:47.366Z,3.07
2017-06-20T13:41:14.896Z,2.80
2017-06-20T13:43:43.085Z,3.10
2017-06-20T13:46:10.528Z,3.40
2017-06-20T13:48:37.959Z,3.40
2017-06-20T13:51:05.384Z,3.83
2017-06-20T13:53:32.820Z,3.40
2017-06-20T13:56:00.240Z,3.40
2017-06-20T13:58:27.668Z,3.50
2017-06-20T14:00:55.102Z,3.17
2017-06-20T14:03:22.552Z,3.60
2017-06-20T14:05:49.979Z,3.00
2017-06-20T14:08:18.183Z,3.40
2017-06-20T14:10:45.612Z,3.33
2017-06-20T14:13:13.045Z,2.93
2017-06-20T14:15:41.248Z,3.10
2017-06-20T14:18:08.672Z,3.20
2017-06-20T14:20:36.155Z,3.47
2017-06-20T14:23:03.588Z,4.23
2017-06-20T14:25:31.782Z,4.00
2017-06-20T14:27:59.989Z,4.00
2017-06-20T14:30:27.518Z,4.00
2017-06-20T14:32:55.777Z,3.30
2017-06-20T14:35:23.970Z,3.60
2017-06-20T14:37:51.499Z,4.37
2017-06-20T14:40:18.928Z,3.90
2017-06-20T14:42:46.368Z,3.90
2017-06-20T14:45:13.852Z,3.33
2017-06-20T14:47:41.264Z,3.40
2017-06-20T14:50:08.696Z,4.10
2017-06-20T14:52:36.893Z,4.20
2017-06-20T14:55:04.346Z,4.03
2017-06-20T14:57:31.764Z,3.80
2017-06-20T14:59:59.192Z,4.50
2017-06-20T15:02:26.638Z,4.43
2017-06-20T15:04:54.068Z,4.27
2017-06-20T15:07:21.504Z,4.50
2017-06-20T15:09:49.701Z,4.10
2017-06-20T15:12:17.164Z,4.23
2017-06-20T15:14:44.595Z,5.20
2017-06-20T15:17:12.785Z,4.70
2017-06-20T15:19:40.221Z,4.47
2017-06-20T15:22:08.417Z,4.70
2017-06-20T15:24:35.843Z,4.17
2017-06-20T15:27:03.268Z,4.10
2017-06-20T15:29:30.713Z,4.77
2017-06-20T15:31:58.141Z,4.53
2017-06-20T15:34:25.576Z,4.00
2017-06-20T15:36:53.779Z,4.10
2017-06-20T15:39:21.549Z,4.70
2017-06-20T15:41:49.160Z,4.60
2017-06-20T15:44:17.402Z,4.13
2017-06-20T15:46:45.073Z,4.40
2017-06-20T15:49:12.968Z,4.10
2017-06-20T15:51:40.606Z,4.60
2017-06-20T15:54:08.258Z,4.40
2017-06-20T15:56:36.143Z,5.00
2017-06-20T15:59:03.895Z,5.50
2017-06-20T16:01:31.879Z,5.40
2017-06-20T16:03:59.744Z,5.47
2017-06-20T16:06:27.302Z,5.07
2017-06-20T16:08:54.942Z,4.60
2017-06-20T16:11:22.538Z,4.40
2017-06-20T16:13:50.150Z,4.03
2017-06-20T16:16:17.762Z,5.30
2017-06-20T16:18:45.482Z,4.90
2017-06-20T16:21:13.086Z,4.77
2017-06-20T16:23:40.856Z,4.80
2017-06-20T16:26:09.407Z,5.57
2017-06-20T16:28:36.946Z,4.93
2017-06-20T16:31:04.660Z,4.33
2017-06-20T16:33:32.977Z,5.10
2017-06-20T16:36:00.599Z,5.33
2017-06-20T16:38:28.034Z,4.50
2017-06-20T16:40:55.524Z,5.47
2017-06-20T16:43:22.928Z,4.90
2017-06-20T16:45:50.352Z,5.03
2017-06-20T16:48:17.787Z,5.53
2017-06-20T16:50:45.984Z,4.90
2017-06-20T16:53:13.416Z,5.30
2017-06-20T16:55:41.611Z,5.70
2017-06-20T16:58:09.216Z,5.33
2017-06-20T17:00:36.651Z,4.97
2017-06-20T17:03:04.072Z,5.37
2017-06-20T17:05:32.284Z,4.93
2017-06-20T17:07:59.708Z,6.03
2017-06-20T17:10:27.154Z,5.47
2017-06-20T17:12:55.352Z,5.07
2017-06-20T17:15:22.812Z,5.47
2017-06-20T17:17:50.235Z,4.63
2017-06-20T17:20:18.428Z,5.33
2017-06-20T17:22:45.963Z,6.50
2017-06-20T17:25:14.161Z,5.10
2017-06-20T17:27:41.592Z,5.10
2017-06-20T17:30:12.540Z,5.00
2017-06-20T17:32:40.832Z,5.13
2017-06-20T17:35:08.263Z,5.27
2017-06-20T17:37:35.713Z,5.47
2017-06-20T17:40:03.322Z,5.47
2017-06-20T17:42:30.974Z,5.03
2017-06-20T17:44:59.329Z,5.40
2017-06-20T17:47:26.909Z,4.87
2017-06-20T17:49:55.235Z,5.30
2017-06-20T17:52:22.775Z,4.83
2017-06-20T17:54:50.287Z,4.60
2017-06-20T17:57:17.877Z,5.00
2017-06-20T17:59:45.572Z,4.77
2017-06-20T18:02:13.158Z,5.47
2017-06-20T18:04:40.942Z,5.33
2017-06-20T18:07:08.536Z,5.47
2017-06-20T18:09:36.028Z,4.87
2017-06-20T18:12:03.666Z,5.90
2017-06-20T18:14:31.168Z,5.43
2017-06-20T18:16:58.633Z,4.83
2017-06-20T18:19:26.900Z,5.03
2017-06-20T18:21:55.099Z,4.90
2017-06-20T18:24:22.529Z,4.90
2017-06-20T18:26:50.028Z,6.23
2017-06-20T18:29:17.540Z,5.80
2017-06-20T18:31:44.984Z,5.10
2017-06-20T18:34:12.408Z,5.50
2017-06-20T18:36:39.845Z,5.20
2017-06-20T18:39:08.267Z,4.80
2017-06-20T18:41:35.700Z,4.93
2017-06-20T18:44:03.951Z,5.30
2017-06-20T18:46:31.389Z,4.60
2017-06-20T18:48:58.820Z,5.10
2017-06-20T18:51:26.256Z,5.13
2017-06-20T18:53:53.685Z,4.83
2017-06-20T18:56:21.116Z,5.37
2017-06-20T18:58:48.560Z,5.60
2017-06-20T19:01:16.772Z,5.43
2017-06-20T19:03:44.200Z,5.60
2017-06-20T19:06:14.412Z,5.33
2017-06-20T19:08:41.844Z,5.50
2017-06-20T19:11:09.332Z,5.93
2017-06-20T19:13:37.534Z,6.27
2017-06-20T19:16:04.964Z,5.20
2017-06-20T19:18:33.167Z,6.07
2017-06-20T19:21:00.587Z,5.60
2017-06-20T19:23:28.048Z,5.00
2017-06-20T19:25:56.231Z,5.70
2017-06-20T19:28:23.728Z,5.43
2017-06-20T19:30:51.164Z,5.00
2017-06-20T19:33:18.592Z,6.90
2017-06-20T19:35:46.800Z,6.00
2017-06-20T19:38:14.224Z,5.87
2017-06-20T19:40:42.436Z,6.47
2017-06-20T19:43:09.872Z,7.03
2017-06-20T19:45:38.073Z,7.23
2017-06-20T19:48:05.504Z,6.83
2017-06-20T19:50:32.940Z,7.80
2017-06-20T19:53:01.136Z,7.33
2017-06-20T19:55:28.564Z,7.97
2017-06-20T19:57:55.987Z,7.30
2017-06-20T20:00:23.422Z,7.50
2017-06-20T20:02:50.852Z,7.80
2017-06-20T20:05:19.049Z,6.93
2017-06-20T20:07:50.935Z,7.70
2017-06-20T20:10:18.352Z,8.03
2017-06-20T20:12:45.784Z,8.27
2017-06-20T20:15:13.212Z,7.43
2017-06-20T20:17:40.650Z,7.67
2017-06-20T20:20:08.105Z,7.70
2017-06-20T20:22:35.536Z,8.77
2017-06-20T20:25:02.979Z,8.90
2017-06-20T20:27:30.405Z,8.83
2017-06-20T20:29:57.837Z,8.27
2017-06-20T20:32:25.272Z,9.00
2017-06-20T20:34:52.695Z,8.50
2017-06-20T20:37:20.901Z,7.50
2017-06-20T20:39:48.332Z,8.70
2017-06-20T20:42:15.780Z,8.00
2017-06-20T20:44:43.228Z,8.60
2017-06-20T20:47:10.652Z,8.47
2017-06-20T20:49:38.088Z,7.40
2017-06-20T20:52:05.516Z,8.70
2017-06-20T20:54:33.017Z,8.03
2017-06-20T20:57:00.425Z,8.30
2017-06-20T20:59:28.649Z,8.83
2017-06-20T21:01:56.061Z,8.20
2017-06-20T21:04:23.498Z,9.23
2017-06-20T21:06:50.921Z,9.03
2017-06-20T21:09:18.351Z,8.60
2017-06-20T21:11:45.800Z,8.90
2017-06-20T21:14:13.252Z,8.53
2017-06-20T21:16:40.669Z,8.40
2017-06-20T21:19:08.108Z,8.67
2017-06-20T21:21:35.536Z,9.07
2017-06-20T21:24:02.964Z,8.60
2017-06-20T21:26:31.169Z,8.83
2017-06-20T21:28:58.596Z,8.63
2017-06-20T21:31:26.817Z,9.80
2017-06-20T21:33:54.249Z,9.40
2017-06-20T21:36:23.241Z,9.70
2017-06-20T21:38:50.668Z,8.97
2017-06-20T21:41:18.108Z,9.50
2017-06-20T21:43:45.547Z,9.93
2017-06-20T21:46:12.985Z,10.13
2017-06-20T21:48:40.420Z,10.00
2017-06-20T21:51:07.852Z,9.27
2017-06-20T21:53:35.288Z,9.03
2017-06-20T21:56:02.724Z,8.87
2017-06-20T21:58:30.180Z,9.13
2017-06-20T22:00:57.620Z,9.93
2017-06-20T22:03:25.072Z,9.43
2017-06-20T22:05:53.248Z,9.90
2017-06-20T22:08:20.684Z,9.93
2017-06-20T22:10:48.112Z,9.87
2017-06-20T22:13:15.552Z,8.30
2017-06-20T22:15:42.992Z,10.13
2017-06-20T22:18:10.432Z,9.93
2017-06-20T22:20:37.860Z,9.37
2017-06-20T22:23:06.056Z,9.13
2017-06-20T22:25:33.491Z,10.30
2017-06-20T22:28:00.920Z,9.37
2017-06-20T22:30:28.367Z,8.93
2017-06-20T22:32:55.803Z,10.77
2017-06-20T22:35:23.240Z,10.30
2017-06-20T22:37:50.675Z,10.10
2017-06-20T22:40:18.872Z,9.63
2017-06-20T22:42:46.304Z,9.37
2017-06-20T22:45:14.504Z,9.73
2017-06-20T22:47:41.923Z,8.90
2017-06-20T22:50:10.213Z,9.93
2017-06-20T22:52:37.648Z,8.87
2017-06-20T22:55:05.080Z,8.93
2017-06-20T22:57:32.505Z,9.37
2017-06-20T22:59:59.940Z,9.40
2017-06-20T23:02:28.204Z,9.23
2017-06-20T23:04:55.642Z,10.50
2017-06-20T23:07:23.076Z,9.00
2017-06-20T23:09:50.509Z,9.03
2017-06-20T23:12:17.928Z,8.40
2017-06-20T23:14:45.357Z,8.60
2017-06-20T23:17:12.795Z,9.83
2017-06-20T23:19:40.225Z,8.50
2017-06-20T23:22:07.656Z,9.60
2017-06-20T23:24:35.856Z,9.73
2017-06-20T23:27:03.296Z,9.20
2017-06-20T23:29:31.571Z,8.43
2017-06-20T23:31:59.801Z,8.97
2017-06-20T23:34:27.236Z,8.50
2017-06-20T23:36:54.660Z,9.03
2017-06-20T23:39:22.093Z,8.87
2017-06-20T23:41:49.520Z,8.60
2017-06-20T23:44:16.982Z,8.27
2017-06-20T23:46:44.399Z,9.10
2017-06-20T23:49:11.832Z,8.33
2017-06-20T23:51:40.116Z,9.40
2017-06-20T23:54:08.320Z,8.67
2017-06-20T23:56:35.748Z,7.77
2017-06-20T23:59:03.948Z,8.40
